sensor_id;sensor_type;location;lat;lon;timestamp;temperature;humidity
2995;DHT22;35277;49.890;8.222;2023-07-13T00:00:04;27.20;56.40
2995;DHT22;35277;49.890;8.222;2023-07-13T00:02:39;27.20;56.40
2995;DHT22;35277;49.890;8.222;2023-07-13T00:05:08;27.20;57.10
2995;DHT22;35277;49.890;8.222;2023-07-13T00:07:36;27.20;56.50
2995;DHT22;35277;49.890;8.222;2023-07-13T00:10:05;27.20;56.50
2995;DHT22;35277;49.890;8.222;2023-07-13T00:12:35;27.10;56.40
2995;DHT22;35277;49.890;8.222;2023-07-13T00:15:07;27.10;56.50
2995;DHT22;35277;49.890;8.222;2023-07-13T00:17:35;27.10;56.50
2995;DHT22;35277;49.890;8.222;2023-07-13T00:20:08;27.20;56.60
2995;DHT22;35277;49.890;8.222;2023-07-13T00:22:37;27.10;56.70
2995;DHT22;35277;49.890;8.222;2023-07-13T00:25:06;27.20;56.80
2995;DHT22;35277;49.890;8.222;2023-07-13T00:27:33;27.10;56.70
2995;DHT22;35277;49.890;8.222;2023-07-13T00:30:01;27.20;56.90
2995;DHT22;35277;49.890;8.222;2023-07-13T00:32:30;27.20;56.90
2995;DHT22;35277;49.890;8.222;2023-07-13T00:34:59;27.20;56.90
2995;DHT22;35277;49.890;8.222;2023-07-13T00:37:28;27.20;56.90
2995;DHT22;35277;49.890;8.222;2023-07-13T00:39:56;27.20;57.00
2995;DHT22;35277;49.890;8.222;2023-07-13T00:42:24;27.20;57.00
2995;DHT22;35277;49.890;8.222;2023-07-13T00:45:04;27.20;57.00
2995;DHT22;35277;49.890;8.222;2023-07-13T00:47:32;27.20;57.00
2995;DHT22;35277;49.890;8.222;2023-07-13T00:50:00;27.20;57.10
2995;DHT22;35277;49.890;8.222;2023-07-13T00:52:30;27.20;57.10
2995;DHT22;35277;49.890;8.222;2023-07-13T00:54:59;27.20;57.00
2995;DHT22;35277;49.890;8.222;2023-07-13T00:57:27;27.20;57.00
2995;DHT22;35277;49.890;8.222;2023-07-13T00:59:58;27.20;57.00
2995;DHT22;35277;49.890;8.222;2023-07-13T01:02:28;27.20;57.00
2995;DHT22;35277;49.890;8.222;2023-07-13T01:04:56;27.20;57.00
2995;DHT22;35277;49.890;8.222;2023-07-13T01:07:24;27.20;57.00
2995;DHT22;35277;49.890;8.222;2023-07-13T01:09:54;27.20;56.90
2995;DHT22;35277;49.890;8.222;2023-07-13T01:12:21;27.20;56.90
2995;DHT22;35277;49.890;8.222;2023-07-13T01:14:57;27.20;56.90
2995;DHT22;35277;49.890;8.222;2023-07-13T01:17:24;27.20;56.90
2995;DHT22;35277;49.890;8.222;2023-07-13T01:19:52;27.10;56.80
2995;DHT22;35277;49.890;8.222;2023-07-13T01:22:24;27.10;56.80
2995;DHT22;35277;49.890;8.222;2023-07-13T01:24:52;27.10;56.80
2995;DHT22;35277;49.890;8.222;2023-07-13T01:27:22;27.10;56.80
2995;DHT22;35277;49.890;8.222;2023-07-13T01:29:52;27.10;56.80
2995;DHT22;35277;49.890;8.222;2023-07-13T01:32:28;27.10;56.80
2995;DHT22;35277;49.890;8.222;2023-07-13T01:34:58;27.10;56.80
2995;DHT22;35277;49.890;8.222;2023-07-13T01:37:27;27.10;56.80
2995;DHT22;35277;49.890;8.222;2023-07-13T01:40:03;27.10;56.80
2995;DHT22;35277;49.890;8.222;2023-07-13T01:42:31;27.10;56.80
2995;DHT22;35277;49.890;8.222;2023-07-13T01:44:58;27.10;56.80
2995;DHT22;35277;49.890;8.222;2023-07-13T01:47:27;27.10;56.80
2995;DHT22;35277;49.890;8.222;2023-07-13T01:49:57;27.10;56.90
2995;DHT22;35277;49.890;8.222;2023-07-13T01:52:26;27.10;56.90
2995;DHT22;35277;49.890;8.222;2023-07-13T01:54:54;27.10;56.90
2995;DHT22;35277;49.890;8.222;2023-07-13T01:57:22;27.10;56.90
2995;DHT22;35277;49.890;8.222;2023-07-13T01:59:50;27.10;56.90
2995;DHT22;35277;49.890;8.222;2023-07-13T02:02:18;27.10;56.90
2995;DHT22;35277;49.890;8.222;2023-07-13T02:04:46;27.10;56.90
2995;DHT22;35277;49.890;8.222;2023-07-13T02:07:14;27.10;56.90
2995;DHT22;35277;49.890;8.222;2023-07-13T02:09:45;27.10;56.90
2995;DHT22;35277;49.890;8.222;2023-07-13T02:12:13;27.10;56.90
2995;DHT22;35277;49.890;8.222;2023-07-13T02:14:40;27.10;56.90
2995;DHT22;35277;49.890;8.222;2023-07-13T02:17:09;27.10;56.90
2995;DHT22;35277;49.890;8.222;2023-07-13T02:19:37;27.00;56.80
2995;DHT22;35277;49.890;8.222;2023-07-13T02:22:05;27.00;56.80
2995;DHT22;35277;49.890;8.222;2023-07-13T02:24:35;27.00;56.80
2995;DHT22;35277;49.890;8.222;2023-07-13T02:27:06;27.00;56.80
2995;DHT22;35277;49.890;8.222;2023-07-13T02:29:34;27.00;56.80
2995;DHT22;35277;49.890;8.222;2023-07-13T02:32:02;27.00;56.70
2995;DHT22;35277;49.890;8.222;2023-07-13T02:34:30;27.00;56.70
2995;DHT22;35277;49.890;8.222;2023-07-13T02:36:59;27.00;56.80
2995;DHT22;35277;49.890;8.222;2023-07-13T02:39:27;27.00;56.70
2995;DHT22;35277;49.890;8.222;2023-07-13T02:41:55;27.00;56.70
2995;DHT22;35277;49.890;8.222;2023-07-13T02:44:24;26.90;56.70
2995;DHT22;35277;49.890;8.222;2023-07-13T02:46:52;26.90;56.70
2995;DHT22;35277;49.890;8.222;2023-07-13T02:49:20;26.90;56.70
2995;DHT22;35277;49.890;8.222;2023-07-13T02:51:47;26.90;56.80
2995;DHT22;35277;49.890;8.222;2023-07-13T02:54:15;26.90;56.80
2995;DHT22;35277;49.890;8.222;2023-07-13T02:56:43;26.90;56.80
2995;DHT22;35277;49.890;8.222;2023-07-13T02:59:11;26.90;56.80
2995;DHT22;35277;49.890;8.222;2023-07-13T03:01:41;26.90;56.90
2995;DHT22;35277;49.890;8.222;2023-07-13T03:04:08;26.80;56.80
2995;DHT22;35277;49.890;8.222;2023-07-13T03:06:37;26.80;56.90
2995;DHT22;35277;49.890;8.222;2023-07-13T03:09:04;26.90;56.90
2995;DHT22;35277;49.890;8.222;2023-07-13T03:11:35;26.90;57.00
2995;DHT22;35277;49.890;8.222;2023-07-13T03:14:16;26.90;57.00
2995;DHT22;35277;49.890;8.222;2023-07-13T03:16:45;26.90;57.00
2995;DHT22;35277;49.890;8.222;2023-07-13T03:19:13;26.90;57.00
2995;DHT22;35277;49.890;8.222;2023-07-13T03:21:45;26.90;57.00
2995;DHT22;35277;49.890;8.222;2023-07-13T03:24:13;26.90;57.00
2995;DHT22;35277;49.890;8.222;2023-07-13T03:26:42;26.90;57.10
2995;DHT22;35277;49.890;8.222;2023-07-13T03:29:10;26.90;57.10
2995;DHT22;35277;49.890;8.222;2023-07-13T03:31:39;26.90;57.10
2995;DHT22;35277;49.890;8.222;2023-07-13T03:34:08;26.90;57.10
2995;DHT22;35277;49.890;8.222;2023-07-13T03:36:37;26.90;57.10
2995;DHT22;35277;49.890;8.222;2023-07-13T03:39:09;26.90;57.10
2995;DHT22;35277;49.890;8.222;2023-07-13T03:41:53;26.90;57.10
2995;DHT22;35277;49.890;8.222;2023-07-13T03:44:21;26.90;57.10
2995;DHT22;35277;49.890;8.222;2023-07-13T03:46:53;26.90;57.10
2995;DHT22;35277;49.890;8.222;2023-07-13T03:49:22;26.90;57.10
2995;DHT22;35277;49.890;8.222;2023-07-13T03:51:50;26.90;57.10
2995;DHT22;35277;49.890;8.222;2023-07-13T03:54:20;26.90;57.10
2995;DHT22;35277;49.890;8.222;2023-07-13T03:56:48;26.90;57.20
2995;DHT22;35277;49.890;8.222;2023-07-13T03:59:17;26.90;57.30
2995;DHT22;35277;49.890;8.222;2023-07-13T04:01:45;26.90;57.40
2995;DHT22;35277;49.890;8.222;2023-07-13T04:04:13;26.90;57.40
2995;DHT22;35277;49.890;8.222;2023-07-13T04:06:43;26.90;57.40
2995;DHT22;35277;49.890;8.222;2023-07-13T04:09:11;26.90;57.50
2995;DHT22;35277;49.890;8.222;2023-07-13T04:11:39;26.90;57.50
2995;DHT22;35277;49.890;8.222;2023-07-13T04:14:07;26.90;57.50
2995;DHT22;35277;49.890;8.222;2023-07-13T04:16:35;26.80;57.40
2995;DHT22;35277;49.890;8.222;2023-07-13T04:19:03;26.80;57.40
2995;DHT22;35277;49.890;8.222;2023-07-13T04:21:31;26.80;57.40
2995;DHT22;35277;49.890;8.222;2023-07-13T04:24:01;26.70;57.30
2995;DHT22;35277;49.890;8.222;2023-07-13T04:26:29;26.70;57.30
2995;DHT22;35277;49.890;8.222;2023-07-13T04:28:57;26.70;57.40
2995;DHT22;35277;49.890;8.222;2023-07-13T04:31:25;26.70;57.30
2995;DHT22;35277;49.890;8.222;2023-07-13T04:33:53;26.70;57.40
2995;DHT22;35277;49.890;8.222;2023-07-13T04:36:20;26.60;57.30
2995;DHT22;35277;49.890;8.222;2023-07-13T04:38:48;26.60;57.30
2995;DHT22;35277;49.890;8.222;2023-07-13T04:41:17;26.60;57.30
2995;DHT22;35277;49.890;8.222;2023-07-13T04:43:45;26.60;57.40
2995;DHT22;35277;49.890;8.222;2023-07-13T04:46:15;26.60;57.40
2995;DHT22;35277;49.890;8.222;2023-07-13T04:48:44;26.60;57.40
2995;DHT22;35277;49.890;8.222;2023-07-13T04:51:12;26.60;57.40
2995;DHT22;35277;49.890;8.222;2023-07-13T04:53:40;26.50;57.40
2995;DHT22;35277;49.890;8.222;2023-07-13T04:56:08;26.50;57.40
2995;DHT22;35277;49.890;8.222;2023-07-13T04:58:37;26.50;57.50
2995;DHT22;35277;49.890;8.222;2023-07-13T05:01:07;26.50;57.50
2995;DHT22;35277;49.890;8.222;2023-07-13T05:03:35;26.50;57.60
2995;DHT22;35277;49.890;8.222;2023-07-13T05:06:05;26.50;57.60
2995;DHT22;35277;49.890;8.222;2023-07-13T05:08:36;26.50;57.60
2995;DHT22;35277;49.890;8.222;2023-07-13T05:11:05;26.50;57.70
2995;DHT22;35277;49.890;8.222;2023-07-13T05:13:33;26.40;57.60
2995;DHT22;35277;49.890;8.222;2023-07-13T05:16:04;26.40;57.60
2995;DHT22;35277;49.890;8.222;2023-07-13T05:18:34;26.50;57.70
2995;DHT22;35277;49.890;8.222;2023-07-13T05:21:06;26.40;57.60
2995;DHT22;35277;49.890;8.222;2023-07-13T05:23:35;26.40;57.60
2995;DHT22;35277;49.890;8.222;2023-07-13T05:26:04;26.40;57.70
2995;DHT22;35277;49.890;8.222;2023-07-13T05:28:35;26.40;57.60
2995;DHT22;35277;49.890;8.222;2023-07-13T05:31:06;26.40;57.60
2995;DHT22;35277;49.890;8.222;2023-07-13T05:33:35;26.40;57.60
2995;DHT22;35277;49.890;8.222;2023-07-13T05:36:03;26.40;57.60
2995;DHT22;35277;49.890;8.222;2023-07-13T05:38:31;26.40;57.60
2995;DHT22;35277;49.890;8.222;2023-07-13T05:40:59;26.40;57.60
2995;DHT22;35277;49.890;8.222;2023-07-13T05:43:34;26.40;57.50
2995;DHT22;35277;49.890;8.222;2023-07-13T05:46:04;26.40;57.60
2995;DHT22;35277;49.890;8.222;2023-07-13T05:48:32;26.40;57.60
2995;DHT22;35277;49.890;8.222;2023-07-13T05:51:00;26.40;57.60
2995;DHT22;35277;49.890;8.222;2023-07-13T05:53:29;26.40;57.60
2995;DHT22;35277;49.890;8.222;2023-07-13T05:55:57;26.40;57.70
2995;DHT22;35277;49.890;8.222;2023-07-13T05:58:28;26.30;57.60
2995;DHT22;35277;49.890;8.222;2023-07-13T06:01:00;26.30;57.70
2995;DHT22;35277;49.890;8.222;2023-07-13T06:03:30;26.30;57.80
2995;DHT22;35277;49.890;8.222;2023-07-13T06:05:58;26.20;57.90
2995;DHT22;35277;49.890;8.222;2023-07-13T06:08:27;26.20;58.00
2995;DHT22;35277;49.890;8.222;2023-07-13T06:11:02;26.10;58.10
2995;DHT22;35277;49.890;8.222;2023-07-13T06:13:30;26.10;58.20
2995;DHT22;35277;49.890;8.222;2023-07-13T06:15:57;26.00;58.20
2995;DHT22;35277;49.890;8.222;2023-07-13T06:18:25;26.00;58.30
2995;DHT22;35277;49.890;8.222;2023-07-13T06:20:54;25.90;58.30
2995;DHT22;35277;49.890;8.222;2023-07-13T06:23:23;25.90;58.30
2995;DHT22;35277;49.890;8.222;2023-07-13T06:25:51;25.80;58.30
2995;DHT22;35277;49.890;8.222;2023-07-13T06:28:19;25.80;58.40
2995;DHT22;35277;49.890;8.222;2023-07-13T06:30:47;25.70;58.40
2995;DHT22;35277;49.890;8.222;2023-07-13T06:33:15;25.60;58.50
2995;DHT22;35277;49.890;8.222;2023-07-13T06:35:42;25.60;58.50
2995;DHT22;35277;49.890;8.222;2023-07-13T06:38:11;25.50;58.60
2995;DHT22;35277;49.890;8.222;2023-07-13T06:40:39;25.50;58.70
2995;DHT22;35277;49.890;8.222;2023-07-13T06:43:07;25.50;58.70
2995;DHT22;35277;49.890;8.222;2023-07-13T06:45:40;25.50;58.80
2995;DHT22;35277;49.890;8.222;2023-07-13T06:48:09;25.50;58.80
2995;DHT22;35277;49.890;8.222;2023-07-13T06:50:37;25.50;58.80
2995;DHT22;35277;49.890;8.222;2023-07-13T06:53:05;25.50;58.80
2995;DHT22;35277;49.890;8.222;2023-07-13T06:55:34;25.40;58.80
2995;DHT22;35277;49.890;8.222;2023-07-13T06:58:02;25.40;58.80
2995;DHT22;35277;49.890;8.222;2023-07-13T07:00:30;25.40;58.80
2995;DHT22;35277;49.890;8.222;2023-07-13T07:02:58;25.40;58.80
2995;DHT22;35277;49.890;8.222;2023-07-13T07:05:26;25.30;58.80
2995;DHT22;35277;49.890;8.222;2023-07-13T07:07:55;25.30;58.80
2995;DHT22;35277;49.890;8.222;2023-07-13T07:10:23;25.30;58.80
2995;DHT22;35277;49.890;8.222;2023-07-13T07:12:52;25.30;58.80
2995;DHT22;35277;49.890;8.222;2023-07-13T07:15:19;25.30;58.80
2995;DHT22;35277;49.890;8.222;2023-07-13T07:17:47;25.30;58.80
2995;DHT22;35277;49.890;8.222;2023-07-13T07:20:15;25.30;58.80
2995;DHT22;35277;49.890;8.222;2023-07-13T07:22:43;25.30;58.70
2995;DHT22;35277;49.890;8.222;2023-07-13T07:25:11;25.30;58.70
2995;DHT22;35277;49.890;8.222;2023-07-13T07:27:39;25.30;58.70
2995;DHT22;35277;49.890;8.222;2023-07-13T07:30:12;25.30;58.70
2995;DHT22;35277;49.890;8.222;2023-07-13T07:32:43;25.20;58.60
2995;DHT22;35277;49.890;8.222;2023-07-13T07:35:13;25.30;58.70
2995;DHT22;35277;49.890;8.222;2023-07-13T07:37:41;25.20;58.60
2995;DHT22;35277;49.890;8.222;2023-07-13T07:40:12;25.30;58.70
2995;DHT22;35277;49.890;8.222;2023-07-13T07:42:43;25.30;58.60
2995;DHT22;35277;49.890;8.222;2023-07-13T07:45:12;25.30;58.60
2995;DHT22;35277;49.890;8.222;2023-07-13T07:47:40;25.30;58.60
2995;DHT22;35277;49.890;8.222;2023-07-13T07:50:09;25.30;58.60
2995;DHT22;35277;49.890;8.222;2023-07-13T07:52:37;25.20;58.60
2995;DHT22;35277;49.890;8.222;2023-07-13T07:55:07;25.20;58.70
2995;DHT22;35277;49.890;8.222;2023-07-13T07:57:37;25.20;58.70
2995;DHT22;35277;49.890;8.222;2023-07-13T08:00:09;25.20;58.70
2995;DHT22;35277;49.890;8.222;2023-07-13T08:02:41;25.20;58.70
2995;DHT22;35277;49.890;8.222;2023-07-13T08:05:12;25.10;58.60
2995;DHT22;35277;49.890;8.222;2023-07-13T08:07:43;25.10;58.60
2995;DHT22;35277;49.890;8.222;2023-07-13T08:10:11;25.10;58.50
2995;DHT22;35277;49.890;8.222;2023-07-13T08:12:39;25.10;58.50
2995;DHT22;35277;49.890;8.222;2023-07-13T08:15:17;25.00;58.40
2995;DHT22;35277;49.890;8.222;2023-07-13T08:17:49;25.00;58.40
2995;DHT22;35277;49.890;8.222;2023-07-13T08:20:16;25.00;58.10
2995;DHT22;35277;49.890;8.222;2023-07-13T08:22:44;24.90;58.00
2995;DHT22;35277;49.890;8.222;2023-07-13T08:25:13;24.80;57.90
2995;DHT22;35277;49.890;8.222;2023-07-13T08:27:40;24.80;58.00
2995;DHT22;35277;49.890;8.222;2023-07-13T08:30:09;24.80;58.00
2995;DHT22;35277;49.890;8.222;2023-07-13T08:32:37;24.80;58.10
2995;DHT22;35277;49.890;8.222;2023-07-13T08:35:07;24.80;58.00
2995;DHT22;35277;49.890;8.222;2023-07-13T08:37:35;24.90;58.10
2995;DHT22;35277;49.890;8.222;2023-07-13T08:40:03;24.80;58.00
2995;DHT22;35277;49.890;8.222;2023-07-13T08:42:35;24.80;57.90
2995;DHT22;35277;49.890;8.222;2023-07-13T08:45:13;24.90;58.00
2995;DHT22;35277;49.890;8.222;2023-07-13T08:47:47;24.90;58.00
2995;DHT22;35277;49.890;8.222;2023-07-13T08:50:20;25.00;58.00
2995;DHT22;35277;49.890;8.222;2023-07-13T08:52:49;25.00;58.00
2995;DHT22;35277;49.890;8.222;2023-07-13T08:55:19;25.00;58.00
2995;DHT22;35277;49.890;8.222;2023-07-13T08:57:53;25.10;58.00
2995;DHT22;35277;49.890;8.222;2023-07-13T09:00:23;25.10;58.00
2995;DHT22;35277;49.890;8.222;2023-07-13T09:02:56;25.20;58.00
2995;DHT22;35277;49.890;8.222;2023-07-13T09:05:29;25.20;58.00
2995;DHT22;35277;49.890;8.222;2023-07-13T09:08:16;25.20;58.00
2995;DHT22;35277;49.890;8.222;2023-07-13T09:10:52;25.20;58.00
2995;DHT22;35277;49.890;8.222;2023-07-13T09:13:27;25.30;57.90
2995;DHT22;35277;49.890;8.222;2023-07-13T09:15:56;25.30;57.90
2995;DHT22;35277;49.890;8.222;2023-07-13T09:18:28;25.30;57.80
2995;DHT22;35277;49.890;8.222;2023-07-13T09:21:03;25.30;57.60
2995;DHT22;35277;49.890;8.222;2023-07-13T09:23:32;25.30;57.50
2995;DHT22;35277;49.890;8.222;2023-07-13T09:26:02;25.30;57.30
2995;DHT22;35277;49.890;8.222;2023-07-13T09:28:36;25.30;57.20
2995;DHT22;35277;49.890;8.222;2023-07-13T09:31:08;25.30;57.20
2995;DHT22;35277;49.890;8.222;2023-07-13T09:33:40;25.30;57.10
2995;DHT22;35277;49.890;8.222;2023-07-13T09:36:20;25.30;56.80
2995;DHT22;35277;49.890;8.222;2023-07-13T09:38:57;25.20;56.40
2995;DHT22;35277;49.890;8.222;2023-07-13T09:41:33;25.20;56.20
2995;DHT22;35277;49.890;8.222;2023-07-13T09:44:08;25.10;56.00
2995;DHT22;35277;49.890;8.222;2023-07-13T09:46:39;25.10;56.00
2995;DHT22;35277;49.890;8.222;2023-07-13T09:49:11;25.20;56.00
2995;DHT22;35277;49.890;8.222;2023-07-13T09:51:41;25.20;55.70
2995;DHT22;35277;49.890;8.222;2023-07-13T09:54:18;25.20;55.60
2995;DHT22;35277;49.890;8.222;2023-07-13T09:56:46;25.20;55.50
2995;DHT22;35277;49.890;8.222;2023-07-13T09:59:19;25.10;55.50
2995;DHT22;35277;49.890;8.222;2023-07-13T10:01:47;25.20;55.60
2995;DHT22;35277;49.890;8.222;2023-07-13T10:04:18;25.20;55.60
2995;DHT22;35277;49.890;8.222;2023-07-13T10:06:47;25.30;55.60
2995;DHT22;35277;49.890;8.222;2023-07-13T10:09:18;25.30;55.50
2995;DHT22;35277;49.890;8.222;2023-07-13T10:11:50;25.40;55.40
2995;DHT22;35277;49.890;8.222;2023-07-13T10:14:20;25.30;55.40
2995;DHT22;35277;49.890;8.222;2023-07-13T10:16:52;25.30;55.20
2995;DHT22;35277;49.890;8.222;2023-07-13T10:19:26;25.30;55.20
2995;DHT22;35277;49.890;8.222;2023-07-13T10:21:57;25.40;55.10
2995;DHT22;35277;49.890;8.222;2023-07-13T10:24:26;25.40;55.00
2995;DHT22;35277;49.890;8.222;2023-07-13T10:26:58;25.40;54.90
2995;DHT22;35277;49.890;8.222;2023-07-13T10:29:34;25.40;54.80
2995;DHT22;35277;49.890;8.222;2023-07-13T10:32:07;25.50;54.80
2995;DHT22;35277;49.890;8.222;2023-07-13T10:34:37;25.50;54.60
2995;DHT22;35277;49.890;8.222;2023-07-13T10:37:16;25.50;54.50
2995;DHT22;35277;49.890;8.222;2023-07-13T10:39:45;25.50;54.50
2995;DHT22;35277;49.890;8.222;2023-07-13T10:42:19;25.50;54.40
2995;DHT22;35277;49.890;8.222;2023-07-13T10:44:51;25.60;54.40
2995;DHT22;35277;49.890;8.222;2023-07-13T10:47:18;25.60;54.30
2995;DHT22;35277;49.890;8.222;2023-07-13T10:49:52;25.70;54.30
2995;DHT22;35277;49.890;8.222;2023-07-13T10:52:43;25.80;54.30
2995;DHT22;35277;49.890;8.222;2023-07-13T10:55:34;25.90;54.20
2995;DHT22;35277;49.890;8.222;2023-07-13T10:58:14;25.90;54.20
2995;DHT22;35277;49.890;8.222;2023-07-13T11:00:51;26.00;54.30
2995;DHT22;35277;49.890;8.222;2023-07-13T11:03:22;26.00;54.30
2995;DHT22;35277;49.890;8.222;2023-07-13T11:05:51;26.10;54.30
2995;DHT22;35277;49.890;8.222;2023-07-13T11:08:36;26.10;54.30
2995;DHT22;35277;49.890;8.222;2023-07-13T11:11:33;26.20;54.40
2995;DHT22;35277;49.890;8.222;2023-07-13T11:14:04;26.20;54.40
2995;DHT22;35277;49.890;8.222;2023-07-13T11:16:45;26.30;54.40
2995;DHT22;35277;49.890;8.222;2023-07-13T11:22:15;26.40;54.50
2995;DHT22;35277;49.890;8.222;2023-07-13T11:25:00;26.40;54.50
2995;DHT22;35277;49.890;8.222;2023-07-13T11:27:37;26.40;54.50
2995;DHT22;35277;49.890;8.222;2023-07-13T11:32:52;26.50;54.60
2995;DHT22;35277;49.890;8.222;2023-07-13T11:35:35;26.50;54.60
2995;DHT22;35277;49.890;8.222;2023-07-13T11:38:13;26.50;54.60
2995;DHT22;35277;49.890;8.222;2023-07-13T11:40:45;26.60;54.70
2995;DHT22;35277;49.890;8.222;2023-07-13T11:43:22;26.60;54.70
2995;DHT22;35277;49.890;8.222;2023-07-13T11:45:51;26.60;54.70
2995;DHT22;35277;49.890;8.222;2023-07-13T11:48:22;26.60;54.60
2995;DHT22;35277;49.890;8.222;2023-07-13T11:50:53;26.60;54.60
2995;DHT22;35277;49.890;8.222;2023-07-13T11:53:24;26.60;54.70
2995;DHT22;35277;49.890;8.222;2023-07-13T11:55:55;26.70;54.70
2995;DHT22;35277;49.890;8.222;2023-07-13T11:58:25;26.70;54.70
2995;DHT22;35277;49.890;8.222;2023-07-13T12:00:58;26.70;54.70
2995;DHT22;35277;49.890;8.222;2023-07-13T12:03:28;26.70;54.70
2995;DHT22;35277;49.890;8.222;2023-07-13T12:05:58;26.70;54.70
2995;DHT22;35277;49.890;8.222;2023-07-13T12:08:27;26.70;54.70
2995;DHT22;35277;49.890;8.222;2023-07-13T12:11:16;26.80;54.80
2995;DHT22;35277;49.890;8.222;2023-07-13T12:13:46;26.80;54.80
2995;DHT22;35277;49.890;8.222;2023-07-13T12:16:16;26.80;54.70
2995;DHT22;35277;49.890;8.222;2023-07-13T12:18:44;26.80;54.70
2995;DHT22;35277;49.890;8.222;2023-07-13T12:21:19;26.80;54.60
2995;DHT22;35277;49.890;8.222;2023-07-13T12:23:48;26.80;54.60
2995;DHT22;35277;49.890;8.222;2023-07-13T12:26:18;26.80;54.50
2995;DHT22;35277;49.890;8.222;2023-07-13T12:28:49;26.90;54.50
2995;DHT22;35277;49.890;8.222;2023-07-13T12:31:25;26.90;54.50
2995;DHT22;35277;49.890;8.222;2023-07-13T12:33:57;26.90;54.50
2995;DHT22;35277;49.890;8.222;2023-07-13T12:36:25;26.90;54.50
2995;DHT22;35277;49.890;8.222;2023-07-13T12:38:57;26.90;54.50
2995;DHT22;35277;49.890;8.222;2023-07-13T12:41:33;26.90;54.50
2995;DHT22;35277;49.890;8.222;2023-07-13T12:44:01;26.90;54.60
2995;DHT22;35277;49.890;8.222;2023-07-13T12:46:29;26.90;54.60
2995;DHT22;35277;49.890;8.222;2023-07-13T12:48:58;26.90;54.60
2995;DHT22;35277;49.890;8.222;2023-07-13T12:51:44;26.90;54.70
2995;DHT22;35277;49.890;8.222;2023-07-13T12:54:16;26.90;54.70
2995;DHT22;35277;49.890;8.222;2023-07-13T12:56:49;26.90;54.80
2995;DHT22;35277;49.890;8.222;2023-07-13T12:59:21;26.90;54.70
2995;DHT22;35277;49.890;8.222;2023-07-13T13:01:50;26.90;54.80
2995;DHT22;35277;49.890;8.222;2023-07-13T13:04:18;27.00;54.80
2995;DHT22;35277;49.890;8.222;2023-07-13T13:06:49;27.00;54.80
2995;DHT22;35277;49.890;8.222;2023-07-13T13:09:27;27.00;54.80
2995;DHT22;35277;49.890;8.222;2023-07-13T13:11:57;27.00;55.50
2995;DHT22;35277;49.890;8.222;2023-07-13T13:14:25;27.00;55.00
2995;DHT22;35277;49.890;8.222;2023-07-13T13:16:53;27.00;55.00
2995;DHT22;35277;49.890;8.222;2023-07-13T13:19:24;27.00;55.60
2995;DHT22;35277;49.890;8.222;2023-07-13T13:21:53;27.00;55.00
2995;DHT22;35277;49.890;8.222;2023-07-13T13:24:24;27.00;55.00
2995;DHT22;35277;49.890;8.222;2023-07-13T13:26:52;27.00;55.10
2995;DHT22;35277;49.890;8.222;2023-07-13T13:29:25;27.00;55.10
2995;DHT22;35277;49.890;8.222;2023-07-13T13:31:53;27.00;55.10
2995;DHT22;35277;49.890;8.222;2023-07-13T13:34:23;27.00;55.10
2995;DHT22;35277;49.890;8.222;2023-07-13T13:36:52;27.00;55.10
2995;DHT22;35277;49.890;8.222;2023-07-13T13:39:30;27.00;55.20
2995;DHT22;35277;49.890;8.222;2023-07-13T13:42:00;27.00;55.20
2995;DHT22;35277;49.890;8.222;2023-07-13T13:44:29;27.00;55.20
2995;DHT22;35277;49.890;8.222;2023-07-13T13:46:57;27.00;55.30
2995;DHT22;35277;49.890;8.222;2023-07-13T13:49:27;27.00;55.30
2995;DHT22;35277;49.890;8.222;2023-07-13T13:51:55;27.00;55.30
2995;DHT22;35277;49.890;8.222;2023-07-13T13:54:24;27.00;55.30
2995;DHT22;35277;49.890;8.222;2023-07-13T13:56:53;27.00;55.40
2995;DHT22;35277;49.890;8.222;2023-07-13T13:59:22;27.00;55.30
2995;DHT22;35277;49.890;8.222;2023-07-13T14:01:51;27.00;55.30
2995;DHT22;35277;49.890;8.222;2023-07-13T14:04:20;27.00;55.30
2995;DHT22;35277;49.890;8.222;2023-07-13T14:06:48;27.00;55.30
2995;DHT22;35277;49.890;8.222;2023-07-13T14:09:18;27.00;55.30
2995;DHT22;35277;49.890;8.222;2023-07-13T14:11:48;27.00;55.30
2995;DHT22;35277;49.890;8.222;2023-07-13T14:14:18;27.10;55.40
2995;DHT22;35277;49.890;8.222;2023-07-13T14:16:48;27.10;55.30
2995;DHT22;35277;49.890;8.222;2023-07-13T14:19:22;27.10;55.10
2995;DHT22;35277;49.890;8.222;2023-07-13T14:21:50;27.00;54.90
2995;DHT22;35277;49.890;8.222;2023-07-13T14:24:20;27.00;54.80
2995;DHT22;35277;49.890;8.222;2023-07-13T14:26:48;27.00;54.70
2995;DHT22;35277;49.890;8.222;2023-07-13T14:29:18;27.00;54.60
2995;DHT22;35277;49.890;8.222;2023-07-13T14:31:50;27.00;54.70
2995;DHT22;35277;49.890;8.222;2023-07-13T14:34:18;27.00;54.80
2995;DHT22;35277;49.890;8.222;2023-07-13T14:36:49;27.00;54.80
2995;DHT22;35277;49.890;8.222;2023-07-13T14:39:19;27.00;54.80
2995;DHT22;35277;49.890;8.222;2023-07-13T14:41:50;27.00;54.90
2995;DHT22;35277;49.890;8.222;2023-07-13T14:44:22;27.00;54.90
2995;DHT22;35277;49.890;8.222;2023-07-13T14:46:51;27.10;55.00
2995;DHT22;35277;49.890;8.222;2023-07-13T14:49:24;27.10;55.00
2995;DHT22;35277;49.890;8.222;2023-07-13T14:51:54;27.00;55.00
2995;DHT22;35277;49.890;8.222;2023-07-13T14:54:24;27.10;55.10
2995;DHT22;35277;49.890;8.222;2023-07-13T14:56:52;27.10;55.10
2995;DHT22;35277;49.890;8.222;2023-07-13T14:59:20;27.10;55.10
2995;DHT22;35277;49.890;8.222;2023-07-13T15:01:49;27.10;55.30
2995;DHT22;35277;49.890;8.222;2023-07-13T15:04:17;27.10;55.10
2995;DHT22;35277;49.890;8.222;2023-07-13T15:06:58;27.10;55.10
2995;DHT22;35277;49.890;8.222;2023-07-13T15:09:26;27.10;55.10
2995;DHT22;35277;49.890;8.222;2023-07-13T15:11:56;27.10;55.10
2995;DHT22;35277;49.890;8.222;2023-07-13T15:14:25;27.10;55.10
2995;DHT22;35277;49.890;8.222;2023-07-13T15:16:54;27.10;55.10
2995;DHT22;35277;49.890;8.222;2023-07-13T15:19:23;27.10;55.10
2995;DHT22;35277;49.890;8.222;2023-07-13T15:21:55;27.10;55.10
2995;DHT22;35277;49.890;8.222;2023-07-13T15:24:24;27.10;55.20
2995;DHT22;35277;49.890;8.222;2023-07-13T15:26:53;27.10;55.00
2995;DHT22;35277;49.890;8.222;2023-07-13T15:29:20;27.10;54.90
2995;DHT22;35277;49.890;8.222;2023-07-13T15:31:49;27.10;54.90
2995;DHT22;35277;49.890;8.222;2023-07-13T15:34:22;27.10;54.80
2995;DHT22;35277;49.890;8.222;2023-07-13T15:36:52;27.10;54.70
2995;DHT22;35277;49.890;8.222;2023-07-13T15:39:21;27.10;54.70
2995;DHT22;35277;49.890;8.222;2023-07-13T15:41:51;27.10;54.60
2995;DHT22;35277;49.890;8.222;2023-07-13T15:44:23;27.10;54.60
2995;DHT22;35277;49.890;8.222;2023-07-13T15:46:52;27.20;54.50
2995;DHT22;35277;49.890;8.222;2023-07-13T15:49:20;27.20;54.40
2995;DHT22;35277;49.890;8.222;2023-07-13T15:51:48;27.20;54.40
2995;DHT22;35277;49.890;8.222;2023-07-13T15:54:18;27.20;54.30
2995;DHT22;35277;49.890;8.222;2023-07-13T15:56:52;27.20;54.20
2995;DHT22;35277;49.890;8.222;2023-07-13T15:59:21;27.20;54.20
2995;DHT22;35277;49.890;8.222;2023-07-13T16:01:49;27.20;54.20
2995;DHT22;35277;49.890;8.222;2023-07-13T16:04:17;27.20;54.20
2995;DHT22;35277;49.890;8.222;2023-07-13T16:06:46;27.20;54.20
2995;DHT22;35277;49.890;8.222;2023-07-13T16:09:19;27.20;54.00